Time;durP1;ratioP1;P1;durP2;ratioP2;P2;SDS_P1;SDS_P2;PMS_P1;PMS_P2;Temp;Humidity;BMP_temperature;BMP_pressure;BME280_temperature;BME280_humidity;BME280_pressure;Samples;Min_cycle;Max_cycle;Signal;HPM_P1;HPM_P2
2024/01/22 00:01:01;;;;;;;6.80;3.20;;;8.50;92.30;;;9.69;62.98;100778.31;3081186;46;20460;-75
2024/01/22 00:03:30;;;;;;;5.40;3.03;;;8.50;92.30;;;9.67;63.13;100756.66;3081364;46;20431;-75
2024/01/22 00:05:58;;;;;;;5.23;2.83;;;8.50;92.30;;;9.73;62.65;100739.34;3080604;46;20526;-75
2024/01/22 00:08:27;;;;;;;5.43;3.03;;;8.60;92.30;;;9.78;62.82;100723.91;3080891;46;20443;-75
2024/01/22 00:10:55;;;;;;;5.90;2.83;;;8.60;92.30;;;9.68;63.05;100704.88;3080891;46;20505;-75
2024/01/22 00:13:24;;;;;;;4.87;2.93;;;8.60;92.40;;;9.77;63.04;100698.63;3080986;46;20526;-75
2024/01/22 00:15:52;;;;;;;5.10;3.10;;;8.60;92.30;;;9.73;62.98;100671.03;3081093;46;21032;-75
2024/01/22 00:18:21;;;;;;;5.20;2.50;;;8.60;92.30;;;9.86;62.82;100687.91;3080776;46;20513;-75
2024/01/22 00:20:49;;;;;;;3.33;2.57;;;8.60;92.30;;;9.77;62.87;100672.34;3080991;46;20431;-75
2024/01/22 00:23:18;;;;;;;4.07;3.20;;;8.60;92.30;;;9.73;63.28;100657.91;3081002;46;20426;-74
2024/01/22 00:25:46;;;;;;;8.93;2.87;;;8.60;92.30;;;9.71;63.28;100665.97;3081156;46;21003;-75
2024/01/22 00:28:14;;;;;;;4.70;2.50;;;8.70;92.40;;;9.73;63.38;100681.53;3080764;46;20440;-75
2024/01/22 00:30:43;;;;;;;5.90;2.40;;;8.60;92.40;;;9.85;63.46;100674.94;3080973;46;20563;-75
2024/01/22 00:33:11;;;;;;;4.73;2.70;;;8.70;92.50;;;9.87;63.31;100658.00;3080422;46;20439;-75
2024/01/22 00:35:40;;;;;;;4.23;2.40;;;8.70;92.50;;;9.87;63.23;100658.00;3082939;46;20426;-75
2024/01/22 00:38:10;;;;;;;2.73;2.13;;;8.70;92.50;;;9.90;63.35;100651.56;3082224;46;20496;-75
2024/01/22 00:40:38;;;;;;;4.70;2.63;;;8.70;92.50;;;9.91;63.33;100634.81;3083704;46;20482;-75
2024/01/22 00:43:07;;;;;;;3.63;2.40;;;8.80;92.50;;;9.88;63.60;100606.25;3082703;46;20435;-75
2024/01/22 00:45:38;;;;;;;6.17;2.70;;;8.80;92.50;;;9.96;63.28;100593.88;3082978;46;20456;-75
2024/01/22 00:48:07;;;;;;;6.17;2.90;;;8.80;92.50;;;9.98;63.32;100626.06;3082279;46;20472;-75
2024/01/22 00:50:36;;;;;;;3.93;2.30;;;8.80;92.40;;;9.96;63.01;100608.84;3083234;46;20926;-75
2024/01/22 00:53:04;;;;;;;9.30;3.07;;;8.80;92.50;;;10.03;62.91;100604.53;3083305;46;20439;-75
2024/01/22 00:55:33;;;;;;;6.33;2.20;;;8.80;92.40;;;10.06;62.75;100591.00;3083092;46;20477;-75
2024/01/22 00:58:01;;;;;;;3.50;2.33;;;8.80;92.40;;;10.01;63.30;100601.22;3081928;46;20467;-75
2024/01/22 01:00:29;;;;;;;3.23;2.33;;;8.80;92.50;;;10.03;63.01;100604.53;3083410;46;20438;-75
2024/01/22 01:02:58;;;;;;;4.40;2.30;;;8.80;92.50;;;10.03;63.17;100604.53;3082991;46;20470;-75
2024/01/22 01:05:26;;;;;;;3.53;2.33;;;8.90;92.60;;;10.07;63.24;100621.56;3083139;46;20430;-75
2024/01/22 01:07:55;;;;;;;3.63;2.43;;;8.90;92.60;;;10.03;63.85;100617.66;3082742;46;20453;-75
2024/01/22 01:10:23;;;;;;;2.93;2.20;;;8.90;92.80;;;10.04;64.47;100621.91;3083321;46;20432;-75
2024/01/22 01:12:52;;;;;;;5.87;2.40;;;8.90;93.10;;;9.95;65.37;100622.97;3083113;46;21130;-75
2024/01/22 01:15:22;;;;;;;4.77;2.57;;;8.90;93.60;;;9.86;66.34;100602.97;3082823;46;20463;-75
2024/01/22 01:17:50;;;;;;;3.77;2.20;;;8.90;93.90;;;9.81;66.81;100597.41;3083086;46;21064;-75
2024/01/22 01:20:19;;;;;;;5.13;2.30;;;8.90;94.10;;;9.75;67.07;100600.72;3082759;46;20447;-74
2024/01/22 01:22:47;;;;;;;3.40;2.27;;;8.80;94.20;;;9.67;67.82;100571.88;3082821;46;21004;-75
2024/01/22 01:25:16;;;;;;;4.87;2.30;;;8.80;94.50;;;9.65;67.64;100560.72;3082841;46;20427;-75
2024/01/22 01:27:44;;;;;;;6.40;2.40;;;8.80;94.50;;;9.68;67.70;100547.22;3082693;46;20444;-75
2024/01/22 01:30:12;;;;;;;4.57;2.10;;;8.80;94.50;;;9.67;67.59;100528.03;3082818;46;20428;-74
2024/01/22 01:32:41;;;;;;;3.93;2.30;;;8.80;94.50;;;9.65;67.72;100522.09;3082791;46;20428;-75
2024/01/22 01:35:09;;;;;;;3.47;2.43;;;8.70;94.60;;;9.66;67.69;100528.19;3082839;46;20427;-75
2024/01/22 01:37:38;;;;;;;5.20;2.40;;;8.70;94.60;;;9.70;67.60;100509.28;3082739;46;20545;-75
2024/01/22 01:40:07;;;;;;;4.23;2.47;;;8.80;94.50;;;9.78;67.29;100516.28;3082824;46;21004;-75
2024/01/22 01:42:36;;;;;;;4.53;2.33;;;8.70;94.50;;;9.77;67.42;100485.75;3082594;46;20451;-75
2024/01/22 01:45:04;;;;;;;4.97;2.40;;;8.80;94.60;;;9.73;67.17;100492.34;3082454;46;20428;-75
2024/01/22 01:47:33;;;;;;;2.87;2.20;;;8.80;94.60;;;9.83;67.43;100458.75;3082420;46;21020;-75
2024/01/22 01:50:01;;;;;;;5.83;2.03;;;8.80;94.50;;;9.87;67.28;100468.75;3082575;46;20428;-76
2024/01/22 01:52:30;;;;;;;4.07;1.90;;;8.80;94.50;;;9.84;66.84;100466.47;3082267;46;21025;-75
2024/01/22 01:55:01;;;;;;;3.83;2.47;;;8.80;94.40;;;9.99;66.44;100466.50;3082349;46;20428;-74
2024/01/22 01:57:30;;;;;;;2.87;2.30;;;8.90;94.30;;;10.09;66.13;100461.81;3081537;46;20439;-75
2024/01/22 01:59:59;;;;;;;4.87;2.07;;;8.90;94.30;;;10.15;65.87;100445.34;3082511;46;20958;-75
2024/01/22 02:02:27;;;;;;;4.70;2.33;;;8.90;94.10;;;10.12;66.05;100449.19;3082468;46;20576;-76
2024/01/22 02:04:56;;;;;;;4.00;2.27;;;9.00;94.10;;;10.24;65.53;100459.25;3082634;46;20431;-75
2024/01/22 02:07:24;;;;;;;4.40;1.90;;;9.00;93.90;;;10.31;65.42;100454.91;3082081;46;20538;-75
2024/01/22 02:09:56;;;;;;;5.87;2.50;;;9.10;93.90;;;10.29;65.34;100455.09;3082696;46;21369;-75
2024/01/22 02:12:24;;;;;;;3.47;2.00;;;9.10;93.80;;;10.42;65.06;100449.19;3082347;46;20448;-75
2024/01/22 02:14:52;;;;;;;2.20;1.87;;;9.20;93.70;;;10.54;64.58;100445.13;3081844;46;20432;-75
2024/01/22 02:17:21;;;;;;;2.27;1.80;;;9.20;93.60;;;10.53;64.26;100428.50;3081309;46;20464;-75
2024/01/22 02:19:50;;;;;;;3.00;2.13;;;9.30;93.50;;;10.69;64.02;100448.59;3082375;46;20455;-75
2024/01/22 02:22:18;;;;;;;2.97;2.07;;;9.30;93.40;;;10.83;63.58;100472.25;3082066;46;20517;-75
2024/01/22 02:24:46;;;;;;;2.83;2.10;;;9.40;93.40;;;10.93;63.16;100465.91;3082426;46;20499;-75
2024/01/22 02:27:18;;;;;;;3.90;2.03;;;9.40;93.30;;;11.01;63.07;100482.41;3082027;46;20464;-75
2024/01/22 02:29:46;;;;;;;4.50;2.73;;;9.50;93.30;;;10.99;62.87;100499.38;3082444;46;20431;-75
2024/01/22 02:32:15;;;;;;;5.77;2.13;;;9.50;93.10;;;10.95;62.99;100479.69;3082091;46;20428;-74
2024/01/22 02:34:43;;;;;;;4.97;2.50;;;9.50;93.00;;;10.88;63.11;100490.97;3082107;46;20492;-75
2024/01/22 02:37:11;;;;;;;3.37;1.80;;;9.60;93.30;;;10.97;63.03;100469.78;3081873;46;20523;-75
2024/01/22 02:39:40;;;;;;;4.63;2.40;;;9.60;92.90;;;10.91;63.05;100470.53;3082031;46;20494;-75
2024/01/22 02:42:08;;;;;;;4.17;2.10;;;9.60;92.90;;;10.86;63.20;100450.81;3082048;46;20427;-75
2024/01/22 02:44:37;;;;;;;4.07;2.30;;;9.70;92.80;;;10.90;62.60;100446.00;3082129;46;20431;-75
2024/01/22 02:47:06;;;;;;;3.63;2.13;;;9.70;92.70;;;10.97;62.89;100422.41;3081975;46;20431;-75
2024/01/22 02:49:34;;;;;;;3.10;2.00;;;9.70;92.60;;;11.07;62.42;100420.28;3081971;46;20462;-75
2024/01/22 02:52:04;;;;;;;4.13;2.33;;;9.80;92.60;;;11.18;62.22;100406.63;3082019;46;20439;-75
2024/01/22 02:54:32;;;;;;;4.00;2.10;;;9.80;92.50;;;11.27;61.86;100422.13;3082256;46;20509;-75
2024/01/22 02:57:01;;;;;;;5.67;1.90;;;9.80;92.50;;;11.18;61.75;100410.09;3080296;46;20428;-75
2024/01/22 02:59:30;;;;;;;2.83;1.70;;;9.80;92.40;;;11.22;61.84;100413.16;3082114;46;20431;-74
2024/01/22 03:01:58;;;;;;;1.77;1.53;;;9.90;92.30;;;11.21;61.90;100406.25;3082063;46;20447;-75
2024/01/22 03:04:26;;;;;;;2.90;1.90;;;9.90;92.20;;;11.22;61.69;100403.44;3082039;46;20512;-75
2024/01/22 03:06:56;;;;;;;2.63;1.87;;;9.90;92.20;;;11.28;61.60;100401.88;3081781;46;20435;-75
2024/01/22 03:09:24;;;;;;;2.27;1.70;;;10.00;91.60;;;11.34;61.50;100385.31;3081103;46;20559;-75
2024/01/22 03:11:53;;;;;;;3.37;1.67;;;10.00;91.50;;;11.32;61.82;100382.88;3081798;46;20486;-75
2024/01/22 03:14:22;;;;;;;4.40;2.27;;;10.00;91.50;;;11.37;61.15;100374.41;3081837;46;20999;-75
2024/01/22 03:16:50;;;;;;;2.07;1.80;;;10.00;91.40;;;11.41;61.38;100368.56;3081235;46;20502;-75
2024/01/22 03:19:18;;;;;;;2.63;1.70;;;10.10;91.40;;;11.34;61.39;100356.31;3081849;46;20436;-75
2024/01/22 03:21:47;;;;;;;3.97;2.20;;;10.10;91.40;;;11.29;61.64;100358.72;3081696;46;20457;-74
2024/01/22 03:24:16;;;;;;;2.43;1.67;;;10.10;91.40;;;11.32;61.94;100356.53;3082026;46;20567;-75
2024/01/22 03:26:44;;;;;;;3.03;1.87;;;10.10;91.40;;;11.43;61.64;100336.75;3082105;46;20498;-75
2024/01/22 03:29:12;;;;;;;4.00;1.80;;;10.20;91.60;;;11.50;61.69;100313.91;3081339;46;20512;-74
2024/01/22 03:31:41;;;;;;;2.77;2.10;;;10.20;91.70;;;11.47;62.23;100311.66;3081594;46;21056;-75
2024/01/22 03:34:09;;;;;;;2.33;1.77;;;10.20;92.00;;;11.34;63.29;100259.66;3081665;46;20518;-75
2024/01/22 03:36:38;;;;;;;3.37;1.93;;;10.20;92.30;;;11.20;64.42;100294.81;3081280;46;20429;-75
2024/01/22 03:39:06;;;;;;;4.60;2.37;;;10.20;92.60;;;11.18;64.32;100280.19;3081222;46;20444;-75
2024/01/22 03:41:39;;;;;;;3.47;2.23;;;10.20;92.60;;;11.16;64.34;100288.28;3081722;46;20427;-75
2024/01/22 03:44:07;;;;;;;4.20;1.70;;;10.10;92.60;;;11.15;64.69;100296.41;3081577;46;20990;-75
2024/01/22 03:46:36;;;;;;;2.10;1.90;;;10.10;92.80;;;11.12;64.92;100296.75;3081293;46;20471;-75
2024/01/22 03:49:04;;;;;;;2.90;2.13;;;10.10;92.90;;;11.15;64.78;100254.25;3081064;46;20496;-75
2024/01/22 03:51:33;;;;;;;3.37;1.93;;;10.10;92.80;;;11.06;65.04;100261.44;3081289;46;20487;-75
2024/01/22 03:54:01;;;;;;;5.17;1.93;;;10.10;93.00;;;11.05;65.13;100248.50;3081389;46;21126;-75
2024/01/22 03:56:30;;;;;;;4.03;2.03;;;10.10;93.00;;;11.05;65.00;100264.28;3080711;46;20428;-75
2024/01/22 03:58:59;;;;;;;2.30;2.10;;;10.10;93.00;;;11.09;64.99;100255.81;3080842;46;20569;-75
2024/01/22 04:01:27;;;;;;;3.13;1.80;;;10.10;92.90;;;11.06;64.94;100226.41;3081169;46;20432;-75
2024/01/22 04:03:56;;;;;;;2.70;1.70;;;10.10;92.90;;;11.10;65.01;100231.09;3080970;46;20459;-75
2024/01/22 04:06:24;;;;;;;3.77;2.10;;;10.10;92.90;;;11.13;65.84;100203.56;3080959;46;20566;-75
2024/01/22 04:08:53;;;;;;;5.13;2.07;;;10.20;93.40;;;11.09;67.21;100192.63;3081975;46;20440;-75
2024/01/22 04:11:21;;;;;;;4.30;2.27;;;10.20;94.00;;;11.08;67.90;100153.31;3083737;46;20430;-75
2024/01/22 04:13:50;;;;;;;3.63;1.83;;;10.10;94.20;;;11.00;68.86;100150.81;3083805;46;20427;-75
2024/01/22 04:16:18;;;;;;;3.63;2.23;;;10.10;94.90;;;10.88;69.41;100156.63;3083441;46;20489;-75
2024/01/22 04:18:47;;;;;;;3.47;2.20;;;10.00;95.10;;;10.81;70.06;100153.13;3082972;46;20439;-75
2024/01/22 04:21:15;;;;;;;2.97;2.33;;;9.90;95.90;;;10.72;71.09;100156.84;3083305;46;20556;-75
2024/01/22 04:23:44;;;;;;;3.83;2.40;;;9.80;96.50;;;10.58;71.61;100149.84;3083367;46;20924;-76
2024/01/22 04:26:12;;;;;;;4.67;2.47;;;9.70;96.80;;;10.55;71.79;100133.66;3083366;46;20528;-75
2024/01/22 04:28:41;;;;;;;4.17;2.10;;;9.60;96.90;;;10.42;72.74;100142.22;3082989;46;21112;-75
2024/01/22 04:31:09;;;;;;;2.43;2.23;;;9.50;97.30;;;10.37;72.88;100123.56;3083678;46;20426;-75
2024/01/22 04:33:37;;;;;;;3.07;1.90;;;9.40;97.40;;;10.42;73.08;100126.44;3083300;46;20431;-75
2024/01/22 04:36:06;;;;;;;4.93;1.80;;;9.40;97.60;;;10.55;72.00;100137.09;3083337;46;20456;-75
2024/01/22 04:38:35;;;;;;;2.43;1.80;;;9.40;97.40;;;10.49;72.61;100119.41;3083384;46;20444;-75
2024/01/22 04:41:03;;;;;;;2.47;2.20;;;9.40;97.70;;;10.50;72.72;100122.88;3083717;46;21086;-75
2024/01/22 04:43:31;;;;;;;2.10;1.77;;;9.40;97.70;;;10.59;72.12;100117.28;3082985;46;20554;-75
2024/01/22 04:46:00;;;;;;;4.10;2.10;;;9.40;97.70;;;10.60;72.18;100123.38;3082905;46;21084;-75
2024/01/22 04:48:28;;;;;;;3.40;2.07;;;9.40;97.60;;;10.65;71.93;100124.41;3082783;46;20440;-75
2024/01/22 04:50:57;;;;;;;4.07;1.90;;;9.40;97.60;;;10.65;71.85;100132.31;3083282;46;20431;-75
2024/01/22 04:53:25;;;;;;;4.40;2.17;;;9.40;97.60;;;10.68;71.70;100107.44;3082987;46;20431;-75
2024/01/22 04:55:54;;;;;;;4.03;1.90;;;9.50;97.60;;;10.69;71.65;100094.09;3083375;46;20460;-75
2024/01/22 04:58:22;;;;;;;3.57;1.87;;;9.50;97.60;;;10.83;71.31;100116.88;3082254;46;20569;-75
2024/01/22 05:00:50;;;;;;;5.30;1.70;;;9.50;97.40;;;10.87;71.21;100112.84;3083038;46;21097;-75
2024/01/22 05:03:19;;;;;;;2.53;2.10;;;9.60;97.80;;;10.80;71.58;100098.81;3083170;46;20454;-76
2024/01/22 05:05:47;;;;;;;4.50;1.80;;;9.60;97.50;;;10.84;71.54;100086.91;3083062;46;20448;-75
2024/01/22 05:08:16;;;;;;;3.40;2.17;;;9.70;97.50;;;10.92;71.37;100083.31;3081878;46;20504;-75
2024/01/22 05:10:44;;;;;;;1.60;1.50;;;9.70;97.50;;;10.85;71.65;100072.75;3082844;46;20427;-75
2024/01/22 05:13:13;;;;;;;2.67;1.70;;;9.70;97.50;;;11.01;71.31;100073.44;3082658;46;20507;-75
2024/01/22 05:15:41;;;;;;;4.23;1.60;;;9.80;97.30;;;11.10;71.27;100080.97;3082746;46;20482;-75
2024/01/22 05:18:10;;;;;;;3.67;2.10;;;9.80;97.40;;;11.14;71.08;100070.88;3082783;46;20455;-75
2024/01/22 05:20:38;;;;;;;2.50;2.00;;;9.90;97.30;;;11.15;70.88;100060.16;3082221;46;20554;-75
2024/01/22 05:23:07;;;;;;;4.57;2.00;;;9.90;97.30;;;11.18;70.97;100058.94;3082940;46;20435;-75
2024/01/22 05:25:35;;;;;;;2.37;1.60;;;9.90;97.30;;;11.16;71.00;100063.59;3082931;46;20513;-75
2024/01/22 05:28:04;;;;;;;1.97;1.70;;;10.00;96.80;;;11.27;70.77;100044.59;3082582;46;20452;-75
2024/01/22 05:30:32;;;;;;;2.90;1.77;;;10.00;96.70;;;11.28;70.76;100027.78;3082784;46;20485;-75
2024/01/22 05:33:00;;;;;;;1.87;1.50;;;10.10;96.80;;;11.30;70.71;100036.31;3082731;46;21015;-75
2024/01/22 05:35:29;;;;;;;2.80;1.60;;;10.10;96.70;;;11.38;70.66;100022.97;3081736;46;20455;-75
2024/01/22 05:37:57;;;;;;;1.90;1.50;;;10.10;96.70;;;11.47;70.42;100048.13;3082225;46;20995;-75
2024/01/22 05:40:26;;;;;;;1.67;1.40;;;10.20;96.70;;;11.56;70.17;100036.41;3082402;46;21063;-75
2024/01/22 05:42:54;;;;;;;1.90;1.47;;;10.20;96.70;;;11.43;70.57;100028.47;3082631;46;20428;-75
2024/01/22 05:45:22;;;;;;;2.37;1.40;;;10.20;96.80;;;11.43;70.98;100031.91;3082447;46;21096;-75
2024/01/22 05:47:51;;;;;;;1.57;1.47;;;10.30;96.70;;;11.45;71.06;100023.81;3082518;46;20456;-76
2024/01/22 05:50:20;;;;;;;2.17;1.70;;;10.30;96.70;;;11.45;71.54;100029.09;3081804;46;20431;-75
2024/01/22 05:52:48;;;;;;;2.50;1.77;;;10.40;96.80;;;11.62;70.71;100029.53;3082644;46;20455;-75
2024/01/22 05:55:17;;;;;;;1.40;1.30;;;10.40;96.60;;;11.65;70.45;100011.50;3082512;46;20460;-75
2024/01/22 05:57:47;;;;;;;2.17;1.40;;;10.40;96.60;;;11.58;70.76;100002.75;3081682;46;20504;-75
2024/01/22 06:00:18;;;;;;;2.97;1.70;;;10.50;96.70;;;11.64;70.79;100006.44;3082664;46;20428;-74
2024/01/22 06:02:47;;;;;;;2.70;1.23;;;10.50;96.70;;;11.61;71.06;100002.38;3082529;46;20509;-76
2024/01/22 06:05:16;;;;;;;2.00;1.40;;;10.50;96.80;;;11.71;70.89;100018.66;3082036;46;20546;-75
2024/01/22 06:07:44;;;;;;;1.47;1.10;;;10.60;96.70;;;11.86;70.60;99995.53;3081921;46;21113;-75
2024/01/22 06:10:13;;;;;;;2.97;1.60;;;10.60;96.70;;;11.96;70.22;100009.16;3082372;46;20568;-75
2024/01/22 06:12:41;;;;;;;2.13;1.47;;;10.60;96.70;;;12.04;70.14;100008.97;3082236;46;20465;-75
2024/01/22 06:15:10;;;;;;;2.90;1.83;;;10.70;96.70;;;12.03;70.54;99990.69;3082919;46;20453;-75
2024/01/22 06:17:38;;;;;;;2.33;1.40;;;10.70;96.80;;;12.03;70.30;100002.06;3083297;46;20463;-75
2024/01/22 06:20:09;;;;;;;1.60;1.50;;;10.70;96.70;;;12.00;70.43;99970.84;3082499;46;20452;-75
2024/01/22 06:22:37;;;;;;;1.70;1.20;;;10.80;96.90;;;11.97;70.86;99981.78;3082240;46;20427;-75
2024/01/22 06:25:07;;;;;;;1.43;1.33;;;10.80;96.90;;;12.02;70.83;99989.91;3082310;46;20428;-75
2024/01/22 06:27:35;;;;;;;1.87;1.77;;;10.80;96.90;;;12.02;71.11;99986.44;3081819;46;20439;-75
2024/01/22 06:30:06;;;;;;;1.43;1.33;;;10.80;97.00;;;12.02;71.13;99995.16;3083022;46;20490;-75
2024/01/22 06:32:35;;;;;;;2.73;1.60;;;10.80;97.10;;;12.00;71.78;99986.66;3081711;46;21026;-75
2024/01/22 06:35:04;;;;;;;2.13;1.90;;;10.80;97.20;;;12.08;71.02;100004.91;3082039;46;20431;-75
2024/01/22 06:37:34;;;;;;;2.13;1.33;;;10.90;97.20;;;12.15;70.81;99995.16;3081720;46;20566;-74
2024/01/22 06:40:03;;;;;;;1.57;1.47;;;10.90;97.10;;;12.12;70.96;99994.78;3081914;46;20986;-75
2024/01/22 06:42:32;;;;;;;1.77;1.57;;;10.90;97.20;;;12.17;71.16;99989.69;3082097;46;20484;-76
2024/01/22 06:45:07;;;;;;;1.80;1.47;;;10.90;97.10;;;12.27;70.95;99981.34;3082314;46;21021;-75
2024/01/22 06:47:36;;;;;;;1.70;1.50;;;10.90;97.10;;;12.17;71.61;99977.28;3081916;46;20445;-75
2024/01/22 06:50:05;;;;;;;2.13;1.93;;;11.00;97.40;;;12.16;71.92;99974.88;3082393;46;20431;-75
2024/01/22 06:52:36;;;;;;;1.70;1.57;;;11.00;97.30;;;12.12;71.85;99979.72;3080604;46;21045;-75
2024/01/22 06:55:07;;;;;;;2.07;1.60;;;11.00;97.30;;;12.23;71.40;99994.97;3081789;46;20995;-75
2024/01/22 06:57:35;;;;;;;2.20;1.53;;;11.10;97.50;;;12.30;71.33;99994.13;3080864;46;20460;-75
2024/01/22 07:00:09;;;;;;;3.33;1.87;;;11.10;97.20;;;12.31;70.91;99982.59;3080598;46;20498;-75
2024/01/22 07:02:38;;;;;;;1.53;1.30;;;11.10;97.20;;;12.28;71.63;99982.97;3081440;43;20574;-76
2024/01/22 07:05:08;;;;;;;1.60;1.50;;;11.10;97.30;;;12.20;72.29;99965.53;3081870;46;20438;-75
2024/01/22 07:07:38;;;;;;;1.50;1.40;;;11.10;97.50;;;12.15;72.62;99992.53;3081246;46;20440;-75
2024/01/22 07:10:08;;;;;;;1.60;1.50;;;11.10;97.60;;;12.15;72.96;99973.25;3081061;46;21082;-75
2024/01/22 07:12:41;;;;;;;1.63;1.53;;;11.10;97.60;;;12.19;72.61;99966.56;3081722;46;20494;-75
2024/01/22 07:15:12;;;;;;;2.47;1.57;;;11.10;97.70;;;12.18;73.03;99988.66;3081713;46;20447;-75
2024/01/22 07:17:41;;;;;;;1.93;1.60;;;11.10;97.80;;;12.21;73.01;99994.38;3081121;43;20444;-75
2024/01/22 07:20:17;;;;;;;1.80;1.63;;;11.10;97.80;;;12.27;72.99;99991.91;3081391;46;20501;-75
2024/01/22 07:22:45;;;;;;;2.30;2.10;;;11.10;97.90;;;12.14;73.63;99993.56;3081745;46;20553;-75
2024/01/22 07:25:16;;;;;;;3.23;2.23;;;11.10;98.10;;;12.18;73.79;100000.03;3081600;46;20547;-75
2024/01/22 07:27:45;;;;;;;1.57;1.47;;;11.10;98.10;;;12.19;73.98;100012.19;3080813;43;20469;-75
2024/01/22 07:30:13;;;;;;;2.20;2.00;;;11.10;98.30;;;12.23;73.71;100010.81;3081311;46;20522;-75
2024/01/22 07:32:44;;;;;;;2.50;2.30;;;11.10;98.30;;;12.32;73.35;100007.94;3081134;46;20439;-75
2024/01/22 07:35:13;;;;;;;1.90;1.80;;;11.10;98.30;;;12.28;73.67;100014.66;3080645;46;20455;-75
2024/01/22 07:37:46;;;;;;;2.23;1.90;;;11.10;98.40;;;12.25;73.62;99997.38;3081102;46;20439;-75
2024/01/22 07:40:15;;;;;;;3.70;2.20;;;11.10;98.40;;;12.32;73.59;100000.84;3081281;46;20486;-75
2024/01/22 07:42:44;;;;;;;2.47;2.27;;;11.10;98.30;;;12.33;73.78;100006.94;3080479;43;20444;-75
2024/01/22 07:45:12;;;;;;;2.10;2.00;;;11.20;98.40;;;12.37;73.70;100016.06;3081397;46;20439;-75
2024/01/22 07:47:43;;;;;;;2.10;2.00;;;11.20;98.30;;;12.49;73.01;100011.78;3080818;46;21008;-75
2024/01/22 07:50:14;;;;;;;2.00;1.80;;;11.20;98.30;;;12.53;73.20;99997.16;3080670;46;21009;-75
2024/01/22 07:52:43;;;;;;;2.30;2.13;;;11.30;98.30;;;12.58;72.72;100006.09;3081182;46;20498;-75
2024/01/22 07:55:17;;;;;;;3.83;2.30;;;11.30;98.20;;;12.62;72.60;99999.38;3081230;46;20427;-75
2024/01/22 07:57:46;;;;;;;2.70;2.50;;;11.40;98.10;;;12.67;72.71;99998.78;3080459;46;20534;-75
2024/01/22 08:00:15;;;;;;;3.07;2.47;;;11.40;98.10;;;12.71;72.21;100005.28;3080977;46;20432;-74
2024/01/22 08:02:44;;;;;;;2.47;2.20;;;11.40;98.10;;;12.77;72.27;100007.06;3080223;46;20568;-75
2024/01/22 08:05:13;;;;;;;2.70;2.30;;;11.40;98.00;;;12.84;71.92;100021.06;3080876;46;20432;-75
2024/01/22 08:07:43;;;;;;;2.87;2.40;;;11.50;98.00;;;12.89;71.51;100010.69;3080705;46;20445;-76
2024/01/22 08:10:13;;;;;;;2.40;2.20;;;11.50;97.90;;;12.99;71.46;100008.44;3080982;46;20433;-75
2024/01/22 08:12:42;;;;;;;2.47;1.60;;;11.50;97.80;;;13.05;71.24;100020.81;3080751;46;20456;-75
2024/01/22 08:15:14;;;;;;;2.20;2.00;;;11.60;98.00;;;13.12;71.02;100024.25;3080748;46;20428;-75
2024/01/22 08:17:46;;;;;;;3.27;2.13;;;11.60;97.80;;;13.19;70.69;100017.13;3080499;46;20472;-75
2024/01/22 08:20:17;;;;;;;2.43;2.10;;;11.70;97.80;;;13.17;70.73;100005.16;3078749;46;20468;-74
2024/01/22 08:22:47;;;;;;;3.43;2.07;;;11.70;97.70;;;13.25;70.54;100023.41;3077948;43;20561;-75
2024/01/22 08:25:19;;;;;;;6.93;2.00;;;11.80;97.60;;;13.31;70.20;100017.31;3078321;46;20451;-75
2024/01/22 08:27:47;;;;;;;3.83;1.87;;;11.80;97.50;;;13.40;69.83;100022.16;3078605;46;20456;-75
2024/01/22 08:30:16;;;;;;;2.07;1.77;;;11.80;97.40;;;13.43;69.54;100026.19;3079145;46;21193;-75
2024/01/22 08:32:45;;;;;;;6.47;1.67;;;11.90;97.30;;;13.52;69.76;100011.72;3078738;46;20471;-75
2024/01/22 08:35:16;;;;;;;4.30;1.60;;;12.00;97.30;;;13.57;69.47;100012.69;3079741;46;20434;-75
2024/01/22 08:37:52;;;;;;;3.43;1.60;;;12.00;97.20;;;13.62;69.14;100017.34;3080634;46;21043;-76
2024/01/22 08:40:22;;;;;;;4.93;1.27;;;12.10;97.10;;;13.63;68.62;100039.31;3080574;46;20585;-75
2024/01/22 08:42:56;;;;;;;3.60;1.43;;;12.20;97.00;;;13.61;68.74;100014.91;3080618;46;20431;-76
2024/01/22 08:45:24;;;;;;;1.93;1.63;;;12.20;96.80;;;13.66;68.65;100030.97;3080635;46;20449;-75
2024/01/22 08:47:52;;;;;;;3.03;1.47;;;12.30;96.80;;;13.74;68.80;100031.50;3080224;46;20564;-76
2024/01/22 08:50:22;;;;;;;2.63;1.33;;;12.30;96.60;;;13.75;68.61;100029.69;3080432;46;21062;-76
2024/01/22 08:52:54;;;;;;;1.37;1.20;;;12.30;96.50;;;13.82;68.66;100038.38;3080526;43;20432;-75
2024/01/22 08:55:23;;;;;;;1.80;1.20;;;12.40;96.50;;;13.93;68.58;100029.78;3080563;46;20448;-75
2024/01/22 08:57:53;;;;;;;3.90;1.43;;;12.50;96.50;;;13.89;68.47;100049.75;3081842;46;21053;-75
2024/01/22 09:00:23;;;;;;;4.47;1.83;;;12.50;96.40;;;13.97;68.33;100038.91;3082885;46;20464;-77
2024/01/22 09:02:52;;;;;;;3.20;1.30;;;12.60;96.40;;;14.02;67.96;100049.66;3082054;46;20451;-75
2024/01/22 09:05:20;;;;;;;5.20;1.83;;;12.60;96.40;;;14.10;68.08;100054.69;3082591;46;20464;-75
2024/01/22 09:07:49;;;;;;;4.93;1.83;;;12.70;96.40;;;14.18;67.71;100051.78;3082136;46;20503;-75
2024/01/22 09:10:18;;;;;;;2.53;1.50;;;12.70;96.40;;;14.25;67.53;100050.72;3082608;43;20946;-75
2024/01/22 09:12:48;;;;;;;4.47;1.50;;;12.70;96.40;;;14.19;67.54;100042.84;3082751;46;20427;-76
2024/01/22 09:15:17;;;;;;;4.30;1.20;;;12.70;96.30;;;14.18;68.08;100052.59;3081678;46;20431;-75
2024/01/22 09:17:47;;;;;;;2.30;1.20;;;12.80;96.40;;;14.17;67.84;100050.16;3081519;46;20441;-74
2024/01/22 09:20:16;;;;;;;4.53;1.60;;;12.80;96.30;;;14.22;67.68;100045.84;3082208;46;20436;-76
2024/01/22 09:22:44;;;;;;;5.23;1.57;;;12.80;96.20;;;14.29;67.46;100037.84;3082100;46;20475;-75
2024/01/22 09:25:13;;;;;;;2.67;1.20;;;12.80;96.30;;;14.33;67.57;100039.09;3082040;46;20999;-75
2024/01/22 09:27:42;;;;;;;2.27;1.20;;;12.80;96.20;;;14.37;67.15;100044.75;3081845;46;20504;-75
2024/01/22 09:30:10;;;;;;;1.73;1.30;;;12.80;96.20;;;14.43;67.15;100044.69;3082681;46;20493;-75
2024/01/22 09:32:41;;;;;;;2.50;1.37;;;12.80;96.20;;;14.48;67.00;100046.69;3081644;46;21074;-75
2024/01/22 09:35:09;;;;;;;3.27;1.30;;;12.80;96.20;;;14.54;66.56;100046.66;3082810;46;20428;-76
2024/01/22 09:37:38;;;;;;;3.27;1.13;;;12.90;96.20;;;14.55;66.70;100048.25;3081272;43;21060;-75
2024/01/22 09:40:11;;;;;;;1.80;1.07;;;12.90;96.20;;;14.54;66.78;100057.25;3081571;46;20526;-75
2024/01/22 09:42:53;;;;;;;3.70;1.30;;;12.90;96.20;;;14.44;66.92;100045.50;3081993;46;21002;-74
2024/01/22 09:45:24;;;;;;;2.50;1.23;;;12.90;96.10;;;14.39;67.14;100053.28;3082235;46;20427;-75
2024/01/22 09:47:55;;;;;;;5.30;1.60;;;12.90;96.40;;;14.36;66.99;100051.88;3082045;46;20471;-75
2024/01/22 09:50:25;;;;;;;6.00;1.70;;;12.90;96.10;;;14.38;67.14;100060.41;3080905;46;21098;-75
2024/01/22 09:52:59;;;;;;;2.80;1.87;;;12.90;96.10;;;14.37;67.27;100066.75;3080511;46;20557;-75
2024/01/22 09:55:29;;;;;;;4.13;1.50;;;12.90;96.20;;;14.43;67.09;100065.88;3080351;46;20509;-75
2024/01/22 09:58:00;;;;;;;5.73;2.10;;;12.90;96.20;;;14.42;67.43;100063.44;3080499;46;20492;-75
2024/01/22 10:00:29;;;;;;;2.77;1.87;;;12.90;96.30;;;14.42;67.75;100063.44;3081162;46;20439;-76
2024/01/22 10:03:00;;;;;;;4.17;2.23;;;13.00;96.40;;;14.41;68.03;100070.56;3081356;46;20510;-75
2024/01/22 10:05:28;;;;;;;4.97;1.70;;;13.00;96.50;;;14.40;68.13;100074.28;3081303;46;20523;-75
2024/01/22 10:07:57;;;;;;;5.97;1.80;;;13.00;96.50;;;14.38;67.91;100089.53;3081723;46;20471;-75
2024/01/22 10:10:26;;;;;;;5.73;2.10;;;13.00;96.60;;;14.38;68.28;100091.41;3081315;46;20427;-75
2024/01/22 10:13:07;;;;;;;10.80;2.60;;;12.90;96.60;;;14.36;67.92;100093.44;3081726;43;21125;-75
2024/01/22 10:15:36;;;;;;;6.03;2.73;;;12.90;96.70;;;14.33;68.70;100107.94;3080547;46;20447;-76
2024/01/22 10:18:17;;;;;;;8.50;2.20;;;12.90;96.80;;;14.28;68.75;100094.50;3081706;46;20440;-75
2024/01/22 10:20:47;;;;;;;7.97;2.20;;;12.90;97.00;;;14.24;69.26;100098.56;3081708;46;20491;-76
2024/01/22 10:23:16;;;;;;;9.60;2.70;;;12.80;97.10;;;14.21;68.97;100085.78;3082173;46;20427;-76
2024/01/22 10:25:44;;;;;;;5.90;2.10;;;12.80;97.10;;;14.20;69.05;100086.78;3081092;46;20427;-75